sensor_id;sensor_type;location;lat;lon;timestamp;pressure;altitude;pressure_sealevel;temperature;humidity
39823;BME280;25499;53.958;10.970;2022-10-12T06:01:07;102436.66;;;6.18;100.00
39823;BME280;25499;53.958;10.970;2022-10-12T06:03:33;102435.75;;;5.96;100.00
39823;BME280;25499;53.958;10.970;2022-10-12T06:05:59;102442.28;;;6.29;100.00
39823;BME280;25499;53.958;10.970;2022-10-12T06:08:24;102435.16;;;6.23;100.00
39823;BME280;25499;53.958;10.970;2022-10-12T06:10:50;102445.22;;;6.38;100.00
39823;BME280;25499;53.958;10.970;2022-10-12T06:13:16;102447.72;;;6.35;100.00
39823;BME280;25499;53.958;10.970;2022-10-12T06:15:44;102447.25;;;6.24;100.00
39823;BME280;25499;53.958;10.970;2022-10-12T06:18:10;102441.19;;;6.03;100.00
39823;BME280;25499;53.958;10.970;2022-10-12T06:20:36;102450.16;;;6.53;100.00
39823;BME280;25499;53.958;10.970;2022-10-12T06:23:01;102442.28;;;6.29;100.00
39823;BME280;25499;53.958;10.970;2022-10-12T06:25:27;102437.25;;;6.32;100.00
39823;BME280;25499;53.958;10.970;2022-10-12T06:27:52;102442.47;;;6.33;100.00
39823;BME280;25499;53.958;10.970;2022-10-12T06:30:18;102448.97;;;6.45;100.00
39823;BME280;25499;53.958;10.970;2022-10-12T06:32:43;102450.59;;;6.43;100.00
39823;BME280;25499;53.958;10.970;2022-10-12T06:35:09;102448.38;;;6.31;100.00
39823;BME280;25499;53.958;10.970;2022-10-12T06:37:34;102445.50;;;6.44;100.00
39823;BME280;25499;53.958;10.970;2022-10-12T06:40:00;102450.16;;;6.74;100.00
39823;BME280;25499;53.958;10.970;2022-10-12T06:42:25;102437.56;;;6.61;100.00
39823;BME280;25499;53.958;10.970;2022-10-12T06:44:50;102444.44;;;6.60;100.00
39823;BME280;25499;53.958;10.970;2022-10-12T06:47:15;102446.13;;;6.60;100.00
39823;BME280;25499;53.958;10.970;2022-10-12T06:49:41;102448.00;;;6.85;100.00
39823;BME280;25499;53.958;10.970;2022-10-12T06:52:06;102443.22;;;6.96;100.00
39823;BME280;25499;53.958;10.970;2022-10-12T06:54:31;102444.00;;;6.93;100.00
39823;BME280;25499;53.958;10.970;2022-10-12T06:56:58;102451.16;;;6.78;100.00
39823;BME280;25499;53.958;10.970;2022-10-12T06:59:23;102454.38;;;6.93;100.00
39823;BME280;25499;53.958;10.970;2022-10-12T07:01:51;102454.66;;;7.01;100.00
39823;BME280;25499;53.958;10.970;2022-10-12T07:04:17;102454.03;;;7.06;100.00
39823;BME280;25499;53.958;10.970;2022-10-12T07:06:45;102454.97;;;7.08;100.00
39823;BME280;25499;53.958;10.970;2022-10-12T07:09:10;102462.19;;;7.17;100.00
39823;BME280;25499;53.958;10.970;2022-10-12T07:11:36;102462.59;;;7.28;100.00
39823;BME280;25499;53.958;10.970;2022-10-12T07:14:01;102460.25;;;7.34;100.00
39823;BME280;25499;53.958;10.970;2022-10-12T07:16:27;102463.41;;;7.50;100.00
39823;BME280;25499;53.958;10.970;2022-10-12T07:18:58;102458.22;;;7.72;100.00
39823;BME280;25499;53.958;10.970;2022-10-12T07:21:26;102465.69;;;7.89;100.00
39823;BME280;25499;53.958;10.970;2022-10-12T07:23:51;102468.31;;;8.14;100.00
39823;BME280;25499;53.958;10.970;2022-10-12T07:26:17;102465.59;;;8.35;100.00
39823;BME280;25499;53.958;10.970;2022-10-12T07:28:43;102462.84;;;8.56;100.00
39823;BME280;25499;53.958;10.970;2022-10-12T07:31:09;102464.06;;;9.22;100.00
39823;BME280;25499;53.958;10.970;2022-10-12T07:33:35;102459.19;;;9.63;100.00
39823;BME280;25499;53.958;10.970;2022-10-12T07:36:02;102458.59;;;9.43;100.00
39823;BME280;25499;53.958;10.970;2022-10-12T07:38:29;102461.06;;;9.69;100.00
39823;BME280;25499;53.958;10.970;2022-10-12T07:40:57;102465.19;;;9.30;100.00
39823;BME280;25499;53.958;10.970;2022-10-12T07:43:23;102454.72;;;9.29;100.00
39823;BME280;25499;53.958;10.970;2022-10-12T07:45:48;102463.22;;;9.53;100.00
39823;BME280;25499;53.958;10.970;2022-10-12T07:48:14;102468.91;;;9.70;100.00
39823;BME280;25499;53.958;10.970;2022-10-12T07:50:40;102467.28;;;10.38;100.00
39823;BME280;25499;53.958;10.970;2022-10-12T07:53:05;102465.81;;;10.48;98.17
39823;BME280;25499;53.958;10.970;2022-10-12T07:55:31;102460.06;;;10.61;96.74
39823;BME280;25499;53.958;10.970;2022-10-12T07:58:00;102460.44;;;10.76;96.96
39823;BME280;25499;53.958;10.970;2022-10-12T08:00:26;102463.34;;;10.90;95.58
39823;BME280;25499;53.958;10.970;2022-10-12T08:02:54;102462.97;;;10.73;94.52
39823;BME280;25499;53.958;10.970;2022-10-12T08:05:20;102479.13;;;10.96;95.48
39823;BME280;25499;53.958;10.970;2022-10-12T08:07:47;102476.41;;;10.92;95.04
39823;BME280;25499;53.958;10.970;2022-10-12T08:10:12;102475.41;;;11.25;95.00
39823;BME280;25499;53.958;10.970;2022-10-12T08:12:38;102461.66;;;11.32;93.00
39823;BME280;25499;53.958;10.970;2022-10-12T08:15:04;102468.84;;;11.44;92.16
39823;BME280;25499;53.958;10.970;2022-10-12T08:17:30;102477.75;;;11.53;92.42
39823;BME280;25499;53.958;10.970;2022-10-12T08:19:55;102466.00;;;11.74;92.96
39823;BME280;25499;53.958;10.970;2022-10-12T08:22:21;102462.34;;;11.66;91.07
39823;BME280;25499;53.958;10.970;2022-10-12T08:24:49;102480.72;;;11.70;91.52
39823;BME280;25499;53.958;10.970;2022-10-12T08:27:14;102473.03;;;12.21;91.02
39823;BME280;25499;53.958;10.970;2022-10-12T08:29:42;102476.69;;;12.30;89.23
39823;BME280;25499;53.958;10.970;2022-10-12T08:32:07;102474.94;;;12.84;87.80
39823;BME280;25499;53.958;10.970;2022-10-12T08:34:33;102461.59;;;12.14;87.52
39823;BME280;25499;53.958;10.970;2022-10-12T08:36:58;102477.50;;;12.28;87.13
39823;BME280;25499;53.958;10.970;2022-10-12T08:39:24;102467.63;;;12.63;87.27
39823;BME280;25499;53.958;10.970;2022-10-12T08:42:25;102472.69;;;12.54;86.12
39823;BME280;25499;53.958;10.970;2022-10-12T08:48:16;102472.66;;;12.49;86.58
39823;BME280;25499;53.958;10.970;2022-10-12T08:50:51;102471.19;;;12.67;85.72
39823;BME280;25499;53.958;10.970;2022-10-12T08:55:52;102479.53;;;13.01;85.04
39823;BME280;25499;53.958;10.970;2022-10-12T08:58:19;102472.66;;;12.51;85.05
39823;BME280;25499;53.958;10.970;2022-10-12T09:00:58;102474.59;;;12.61;85.18
39823;BME280;25499;53.958;10.970;2022-10-12T09:04:02;102470.91;;;13.08;83.98
39823;BME280;25499;53.958;10.970;2022-10-12T09:09:56;102471.53;;;13.50;82.72
39823;BME280;25499;53.958;10.970;2022-10-12T09:12:38;102459.50;;;13.66;80.54
39823;BME280;25499;53.958;10.970;2022-10-12T09:15:22;102463.66;;;14.31;80.08
39823;BME280;25499;53.958;10.970;2022-10-12T09:17:56;102460.34;;;14.53;78.50
39823;BME280;25499;53.958;10.970;2022-10-12T09:20:30;102460.25;;;14.41;77.69
39823;BME280;25499;53.958;10.970;2022-10-12T09:25:48;102441.81;;;14.32;76.38
39823;BME280;25499;53.958;10.970;2022-10-12T09:28:28;102437.00;;;13.85;77.10
39823;BME280;25499;53.958;10.970;2022-10-12T09:31:05;102451.22;;;14.08;77.41
39823;BME280;25499;53.958;10.970;2022-10-12T09:33:42;102442.56;;;14.18;76.97
39823;BME280;25499;53.958;10.970;2022-10-12T09:36:15;102457.03;;;14.74;76.29
39823;BME280;25499;53.958;10.970;2022-10-12T09:38:45;102456.66;;;15.70;74.75
39823;BME280;25499;53.958;10.970;2022-10-12T09:41:28;102434.66;;;15.37;72.29
39823;BME280;25499;53.958;10.970;2022-10-12T09:55:28;102437.94;;;17.92;66.22
39823;BME280;25499;53.958;10.970;2022-10-12T09:57:56;102423.91;;;17.93;64.26
39823;BME280;25499;53.958;10.970;2022-10-12T10:00:25;102412.09;;;19.24;58.92
39823;BME280;25499;53.958;10.970;2022-10-12T10:02:52;102409.22;;;19.44;58.61
39823;BME280;25499;53.958;10.970;2022-10-12T10:07:48;102417.16;;;21.04;56.58
39823;BME280;25499;53.958;10.970;2022-10-12T10:10:17;102397.00;;;20.97;53.98
39823;BME280;25499;53.958;10.970;2022-10-12T10:12:51;102393.31;;;21.85;51.69
39823;BME280;25499;53.958;10.970;2022-10-12T10:17:51;102382.19;;;21.71;51.16
39823;BME280;25499;53.958;10.970;2022-10-12T10:20:25;102382.03;;;21.77;50.54
39823;BME280;25499;53.958;10.970;2022-10-12T10:22:52;102390.53;;;22.26;49.50
39823;BME280;25499;53.958;10.970;2022-10-12T10:25:20;102394.19;;;22.22;51.03
39823;BME280;25499;53.958;10.970;2022-10-12T10:27:46;102396.50;;;24.68;46.30
39823;BME280;25499;53.958;10.970;2022-10-12T10:32:41;102381.69;;;24.34;45.06
39823;BME280;25499;53.958;10.970;2022-10-12T10:37:58;102367.38;;;22.65;48.78
39823;BME280;25499;53.958;10.970;2022-10-12T10:40:29;102372.81;;;22.28;48.00
39823;BME280;25499;53.958;10.970;2022-10-12T10:43:01;102363.53;;;22.77;47.94
39823;BME280;25499;53.958;10.970;2022-10-12T10:45:41;102374.19;;;24.70;45.68
39823;BME280;25499;53.958;10.970;2022-10-12T10:48:08;102370.31;;;24.54;45.40
39823;BME280;25499;53.958;10.970;2022-10-12T10:50:40;102372.78;;;25.09;45.85
39823;BME280;25499;53.958;10.970;2022-10-12T10:53:19;102355.84;;;24.86;44.52
39823;BME280;25499;53.958;10.970;2022-10-12T10:56:00;102356.44;;;26.68;42.27
39823;BME280;25499;53.958;10.970;2022-10-12T10:58:43;102340.50;;;25.61;42.66
39823;BME280;25499;53.958;10.970;2022-10-12T11:01:30;102323.94;;;24.36;43.21
39823;BME280;25499;53.958;10.970;2022-10-12T11:04:18;102315.84;;;24.39;42.48
39823;BME280;25499;53.958;10.970;2022-10-12T11:06:51;102317.25;;;24.97;41.97
39823;BME280;25499;53.958;10.970;2022-10-12T11:09:25;102301.91;;;24.80;41.45
39823;BME280;25499;53.958;10.970;2022-10-12T11:12:14;102311.50;;;25.53;41.33
39823;BME280;25499;53.958;10.970;2022-10-12T11:14:50;102299.34;;;24.54;42.72
39823;BME280;25499;53.958;10.970;2022-10-12T11:17:27;102297.50;;;26.51;39.60
39823;BME280;25499;53.958;10.970;2022-10-12T11:20:23;102293.53;;;26.80;38.40
39823;BME280;25499;53.958;10.970;2022-10-12T11:23:00;102281.31;;;26.93;37.73
39823;BME280;25499;53.958;10.970;2022-10-12T11:25:40;102290.13;;;27.51;37.63
39823;BME280;25499;53.958;10.970;2022-10-12T11:28:13;102285.53;;;27.16;37.27
39823;BME280;25499;53.958;10.970;2022-10-12T11:30:44;102291.38;;;27.44;38.13
39823;BME280;25499;53.958;10.970;2022-10-12T11:35:44;102253.47;;;25.38;39.34
39823;BME280;25499;53.958;10.970;2022-10-12T11:38:26;102275.00;;;26.17;39.13
39823;BME280;25499;53.958;10.970;2022-10-12T11:41:02;102261.59;;;25.98;39.62
39823;BME280;25499;53.958;10.970;2022-10-12T11:43:32;102257.38;;;25.72;39.54
39823;BME280;25499;53.958;10.970;2022-10-12T11:46:01;102243.06;;;23.63;41.67
39823;BME280;25499;53.958;10.970;2022-10-12T11:48:51;102251.44;;;24.04;42.61
39823;BME280;25499;53.958;10.970;2022-10-12T11:51:18;102240.47;;;22.47;42.59
39823;BME280;25499;53.958;10.970;2022-10-12T11:56:30;102262.53;;;23.37;44.03
39823;BME280;25499;53.958;10.970;2022-10-12T11:59:01;102240.25;;;22.23;43.54
39823;BME280;25499;53.958;10.970;2022-10-12T12:04:17;102241.22;;;22.52;42.59
39823;BME280;25499;53.958;10.970;2022-10-12T12:09:58;102220.69;;;18.92;48.81
39823;BME280;25499;53.958;10.970;2022-10-12T12:12:26;102225.31;;;18.73;50.53
39823;BME280;25499;53.958;10.970;2022-10-12T12:22:16;102248.06;;;23.19;44.21
39823;BME280;25499;53.958;10.970;2022-10-12T12:25:04;102214.06;;;22.44;42.88
39823;BME280;25499;53.958;10.970;2022-10-12T12:32:55;102209.06;;;17.48;52.79
39823;BME280;25499;53.958;10.970;2022-10-12T12:35:34;102214.34;;;17.48;52.75
39823;BME280;25499;53.958;10.970;2022-10-12T12:40:35;102232.81;;;17.41;55.05
39823;BME280;25499;53.958;10.970;2022-10-12T12:45:58;102213.69;;;17.19;53.12
39823;BME280;25499;53.958;10.970;2022-10-12T12:51:10;102202.66;;;16.49;54.72
39823;BME280;25499;53.958;10.970;2022-10-12T12:53:51;102201.94;;;15.94;56.11
39823;BME280;25499;53.958;10.970;2022-10-12T13:05:25;102218.59;;;15.47;58.70
39823;BME280;25499;53.958;10.970;2022-10-12T13:14:21;102209.81;;;15.54;57.25
39823;BME280;25499;53.958;10.970;2022-10-12T13:17:09;102215.06;;;15.16;58.00
39823;BME280;25499;53.958;10.970;2022-10-12T13:19:38;102208.94;;;15.04;57.91
39823;BME280;25499;53.958;10.970;2022-10-12T13:22:12;102218.56;;;15.25;58.32
39823;BME280;25499;53.958;10.970;2022-10-12T13:24:44;102201.06;;;15.07;58.03
39823;BME280;25499;53.958;10.970;2022-10-12T13:27:24;102202.81;;;15.01;57.67
39823;BME280;25499;53.958;10.970;2022-10-12T13:30:25;102194.94;;;15.05;57.44
39823;BME280;25499;53.958;10.970;2022-10-12T13:32:58;102204.53;;;15.03;58.05
39823;BME280;25499;53.958;10.970;2022-10-12T13:40:38;102205.44;;;15.25;59.62
39823;BME280;25499;53.958;10.970;2022-10-12T13:43:43;102193.19;;;15.04;57.14
39823;BME280;25499;53.958;10.970;2022-10-12T13:46:12;102180.03;;;14.89;56.39
39823;BME280;25499;53.958;10.970;2022-10-12T13:48:38;102174.75;;;14.69;56.47
39823;BME280;25499;53.958;10.970;2022-10-12T13:51:05;102175.59;;;14.59;57.10
39823;BME280;25499;53.958;10.970;2022-10-12T13:53:42;102172.94;;;14.49;57.13
39823;BME280;25499;53.958;10.970;2022-10-12T13:56:16;102179.09;;;14.61;58.33
39823;BME280;25499;53.958;10.970;2022-10-12T13:58:42;102166.91;;;14.73;57.58
39823;BME280;25499;53.958;10.970;2022-10-12T14:01:11;102166.03;;;14.82;58.11
39823;BME280;25499;53.958;10.970;2022-10-12T14:03:39;102155.53;;;14.70;57.25
39823;BME280;25499;53.958;10.970;2022-10-12T14:06:05;102156.41;;;14.81;56.78
39823;BME280;25499;53.958;10.970;2022-10-12T14:08:47;102154.69;;;14.79;56.96
39823;BME280;25499;53.958;10.970;2022-10-12T14:11:12;102150.28;;;14.70;56.49
39823;BME280;25499;53.958;10.970;2022-10-12T14:13:38;102152.91;;;14.65;56.61
39823;BME280;25499;53.958;10.970;2022-10-12T14:16:04;102140.66;;;14.67;57.20
39823;BME280;25499;53.958;10.970;2022-10-12T14:18:39;102139.78;;;14.62;56.38
39823;BME280;25499;53.958;10.970;2022-10-12T14:23:44;102140.69;;;14.75;55.16
39823;BME280;25499;53.958;10.970;2022-10-12T14:28:57;102135.41;;;14.63;55.63
39823;BME280;25499;53.958;10.970;2022-10-12T14:31:45;102132.81;;;14.69;56.38
39823;BME280;25499;53.958;10.970;2022-10-12T14:37:03;102136.31;;;14.74;57.21
39823;BME280;25499;53.958;10.970;2022-10-12T14:39:29;102137.19;;;14.70;58.69
39823;BME280;25499;53.958;10.970;2022-10-12T14:41:55;102137.19;;;14.76;58.38
39823;BME280;25499;53.958;10.970;2022-10-12T14:44:22;102118.81;;;14.62;57.14
39823;BME280;25499;53.958;10.970;2022-10-12T14:49:24;102117.03;;;14.55;57.50
39823;BME280;25499;53.958;10.970;2022-10-12T14:51:52;102116.16;;;14.51;57.71
39823;BME280;25499;53.958;10.970;2022-10-12T14:54:18;102117.94;;;14.59;57.94
39823;BME280;25499;53.958;10.970;2022-10-12T14:56:44;102118.72;;;14.44;57.42
39823;BME280;25499;53.958;10.970;2022-10-12T14:59:10;102124.84;;;14.43;58.08
39823;BME280;25499;53.958;10.970;2022-10-12T15:01:35;102118.72;;;14.42;58.14
39823;BME280;25499;53.958;10.970;2022-10-12T15:04:01;102116.94;;;14.32;57.70
39823;BME280;25499;53.958;10.970;2022-10-12T15:06:26;102118.69;;;14.33;58.52
39823;BME280;25499;53.958;10.970;2022-10-12T15:08:51;102123.94;;;14.30;58.41
39823;BME280;25499;53.958;10.970;2022-10-12T15:11:17;102120.44;;;14.37;58.05
39823;BME280;25499;53.958;10.970;2022-10-12T15:13:42;102110.78;;;14.22;58.39
39823;BME280;25499;53.958;10.970;2022-10-12T15:16:22;102107.34;;;14.29;58.04
39823;BME280;25499;53.958;10.970;2022-10-12T15:18:47;102116.91;;;14.21;59.00
39823;BME280;25499;53.958;10.970;2022-10-12T15:21:13;102111.69;;;14.23;58.64
39823;BME280;25499;53.958;10.970;2022-10-12T15:23:38;102107.28;;;14.12;58.85
39823;BME280;25499;53.958;10.970;2022-10-12T15:26:04;102102.91;;;14.14;58.38
39823;BME280;25499;53.958;10.970;2022-10-12T15:28:30;102092.41;;;14.08;58.41
39823;BME280;25499;53.958;10.970;2022-10-12T15:30:56;102092.41;;;14.11;57.96
39823;BME280;25499;53.958;10.970;2022-10-12T15:33:23;102088.91;;;14.05;59.26
39823;BME280;25499;53.958;10.970;2022-10-12T15:35:49;102090.66;;;14.06;60.26
39823;BME280;25499;53.958;10.970;2022-10-12T15:38:14;102093.09;;;13.67;62.88
39823;BME280;25499;53.958;10.970;2022-10-12T15:40:42;102083.47;;;13.66;62.11
39823;BME280;25499;53.958;10.970;2022-10-12T15:43:09;102082.53;;;13.52;61.46
39823;BME280;25499;53.958;10.970;2022-10-12T15:45:37;102089.56;;;13.62;62.07
39823;BME280;25499;53.958;10.970;2022-10-12T15:48:03;102092.19;;;13.62;62.40
39823;BME280;25499;53.958;10.970;2022-10-12T15:50:35;102093.94;;;13.63;62.74
39823;BME280;25499;53.958;10.970;2022-10-12T15:53:01;102079.84;;;13.39;63.60
39823;BME280;25499;53.958;10.970;2022-10-12T15:55:29;102084.09;;;13.30;63.74
39823;BME280;25499;53.958;10.970;2022-10-12T15:57:55;102080.47;;;13.09;64.52
39823;BME280;25499;53.958;10.970;2022-10-12T16:00:23;102086.53;;;13.03;65.80
39823;BME280;25499;53.958;10.970;2022-10-12T16:02:53;102084.66;;;12.93;66.07
39823;BME280;25499;53.958;10.970;2022-10-12T16:07:49;102088.22;;;13.01;65.90
39823;BME280;25499;53.958;10.970;2022-10-12T16:10:16;102077.53;;;12.74;66.42
39823;BME280;25499;53.958;10.970;2022-10-12T16:12:44;102079.03;;;12.50;67.28
39823;BME280;25499;53.958;10.970;2022-10-12T16:15:12;102086.69;;;12.31;68.23
39823;BME280;25499;53.958;10.970;2022-10-12T16:17:39;102089.19;;;12.22;68.79
39823;BME280;25499;53.958;10.970;2022-10-12T16:20:05;102088.44;;;12.32;67.57
39823;BME280;25499;53.958;10.970;2022-10-12T16:22:33;102087.31;;;12.10;68.61
39823;BME280;25499;53.958;10.970;2022-10-12T16:24:58;102079.25;;;11.92;69.87
39823;BME280;25499;53.958;10.970;2022-10-12T16:27:24;102079.84;;;11.74;70.20
39823;BME280;25499;53.958;10.970;2022-10-12T16:29:49;102083.09;;;11.59;71.17
39823;BME280;25499;53.958;10.970;2022-10-12T16:32:15;102088.44;;;11.67;70.92
39823;BME280;25499;53.958;10.970;2022-10-12T16:34:40;102087.47;;;11.58;71.11
39823;BME280;25499;53.958;10.970;2022-10-12T16:37:05;102080.34;;;11.47;70.87
39823;BME280;25499;53.958;10.970;2022-10-12T16:39:31;102083.84;;;11.47;71.23
39823;BME280;25499;53.958;10.970;2022-10-12T16:41:56;102084.41;;;11.28;71.88
39823;BME280;25499;53.958;10.970;2022-10-12T16:44:22;102086.16;;;11.29;71.97
39823;BME280;25499;53.958;10.970;2022-10-12T16:46:47;102086.97;;;11.26;71.68
39823;BME280;25499;53.958;10.970;2022-10-12T16:49:13;102080.72;;;11.16;72.08
39823;BME280;25499;53.958;10.970;2022-10-12T16:51:38;102082.44;;;11.14;72.20
39823;BME280;25499;53.958;10.970;2022-10-12T16:54:06;102080.44;;;10.98;73.17
39823;BME280;25499;53.958;10.970;2022-10-12T16:56:32;102077.56;;;10.82;73.71
39823;BME280;25499;53.958;10.970;2022-10-12T16:58:58;102085.63;;;10.95;74.31
39823;BME280;25499;53.958;10.970;2022-10-12T17:01:23;102078.63;;;10.94;73.79
39823;BME280;25499;53.958;10.970;2022-10-12T17:03:52;102075.06;;;10.89;73.33
39823;BME280;25499;53.958;10.970;2022-10-12T17:06:17;102075.84;;;10.81;73.59
39823;BME280;25499;53.958;10.970;2022-10-12T17:08:43;102083.78;;;10.91;74.01
39823;BME280;25499;53.958;10.970;2022-10-12T17:11:11;102077.84;;;10.99;73.72
39823;BME280;25499;53.958;10.970;2022-10-12T17:13:39;102085.84;;;11.09;73.47
39823;BME280;25499;53.958;10.970;2022-10-12T17:16:06;102083.53;;;10.75;73.65
39823;BME280;25499;53.958;10.970;2022-10-12T17:18:50;102087.00;;;10.74;74.40
39823;BME280;25499;53.958;10.970;2022-10-12T17:21:16;102090.16;;;10.58;74.88
39823;BME280;25499;53.958;10.970;2022-10-12T17:23:41;102079.81;;;10.61;75.71
39823;BME280;25499;53.958;10.970;2022-10-12T17:26:07;102082.28;;;10.55;75.99
39823;BME280;25499;53.958;10.970;2022-10-12T17:28:36;102081.09;;;10.86;75.74
39823;BME280;25499;53.958;10.970;2022-10-12T17:31:03;102078.59;;;10.91;74.94
39823;BME280;25499;53.958;10.970;2022-10-12T17:33:30;102077.50;;;10.78;74.90
39823;BME280;25499;53.958;10.970;2022-10-12T17:35:55;102075.34;;;10.55;75.65
39823;BME280;25499;53.958;10.970;2022-10-12T17:38:26;102070.78;;;10.43;75.88
39823;BME280;25499;53.958;10.970;2022-10-12T17:40:52;102074.06;;;10.33;76.39
39823;BME280;25499;53.958;10.970;2022-10-12T17:43:17;102071.66;;;10.00;76.41
39823;BME280;25499;53.958;10.970;2022-10-12T17:45:42;102067.91;;;9.87;77.27
39823;BME280;25499;53.958;10.970;2022-10-12T17:48:08;102074.59;;;9.76;77.95
39823;BME280;25499;53.958;10.970;2022-10-12T17:50:33;102078.59;;;10.01;77.79
39823;BME280;25499;53.958;10.970;2022-10-12T17:53:00;102070.19;;;10.14;77.30
39823;BME280;25499;53.958;10.970;2022-10-12T17:55:25;102069.78;;;9.94;77.54
39823;BME280;25499;53.958;10.970;2022-10-12T17:57:51;102071.78;;;9.65;77.63
39823;BME280;25499;53.958;10.970;2022-10-12T18:00:17;102075.00;;;9.55;79.42
39823;BME280;25499;53.958;10.970;2022-10-12T18:02:42;102075.97;;;9.58;79.39
39823;BME280;25499;53.958;10.970;2022-10-12T18:05:09;102074.19;;;9.57;79.22
39823;BME280;25499;53.958;10.970;2022-10-12T18:07:35;102068.69;;;9.43;79.16
39823;BME280;25499;53.958;10.970;2022-10-12T18:10:03;102073.91;;;9.45;79.82
39823;BME280;25499;53.958;10.970;2022-10-12T18:12:29;102074.06;;;9.51;80.13
39823;BME280;25499;53.958;10.970;2022-10-12T18:14:54;102083.69;;;9.55;80.28
39823;BME280;25499;53.958;10.970;2022-10-12T18:17:20;102077.56;;;9.53;80.23
39823;BME280;25499;53.958;10.970;2022-10-12T18:19:45;102079.63;;;9.66;79.64
39823;BME280;25499;53.958;10.970;2022-10-12T18:22:12;102079.06;;;9.81;79.28
39823;BME280;25499;53.958;10.970;2022-10-12T18:24:38;102080.44;;;10.05;79.23
39823;BME280;25499;53.958;10.970;2022-10-12T18:27:04;102072.03;;;9.77;79.13
39823;BME280;25499;53.958;10.970;2022-10-12T18:29:29;102073.84;;;9.80;79.66
39823;BME280;25499;53.958;10.970;2022-10-12T18:31:55;102064.31;;;9.80;79.71
39823;BME280;25499;53.958;10.970;2022-10-12T18:34:20;102066.97;;;9.83;79.42
39823;BME280;25499;53.958;10.970;2022-10-12T18:36:46;102063.78;;;9.57;79.98
39823;BME280;25499;53.958;10.970;2022-10-12T18:39:11;102061.16;;;9.95;79.06
39823;BME280;25499;53.958;10.970;2022-10-12T18:41:36;102056.81;;;9.96;78.54
39823;BME280;25499;53.958;10.970;2022-10-12T18:44:02;102053.75;;;9.74;78.40
39823;BME280;25499;53.958;10.970;2022-10-12T18:46:30;102052.78;;;9.67;78.90
39823;BME280;25499;53.958;10.970;2022-10-12T18:48:55;102050.03;;;9.61;78.96
39823;BME280;25499;53.958;10.970;2022-10-12T18:51:27;102051.84;;;9.65;79.54
39823;BME280;25499;53.958;10.970;2022-10-12T18:53:54;102051.72;;;9.59;79.82
39823;BME280;25499;53.958;10.970;2022-10-12T18:56:20;102045.69;;;9.62;79.42
39823;BME280;25499;53.958;10.970;2022-10-12T18:58:46;102063.94;;;9.63;79.34
39823;BME280;25499;53.958;10.970;2022-10-12T19:01:17;102055.13;;;9.57;79.69
39823;BME280;25499;53.958;10.970;2022-10-12T19:03:43;102052.16;;;9.40;79.90
39823;BME280;25499;53.958;10.970;2022-10-12T19:06:11;102049.91;;;9.57;79.90
39823;BME280;25499;53.958;10.970;2022-10-12T19:08:37;102044.97;;;9.29;80.26
39823;BME280;25499;53.958;10.970;2022-10-12T19:11:04;102050.94;;;9.24;81.02
39823;BME280;25499;53.958;10.970;2022-10-12T19:13:30;102043.47;;;9.03;80.95
39823;BME280;25499;53.958;10.970;2022-10-12T19:15:56;102057.63;;;9.14;81.68
39823;BME280;25499;53.958;10.970;2022-10-12T19:18:21;102054.84;;;9.06;81.60
39823;BME280;25499;53.958;10.970;2022-10-12T19:20:47;102055.59;;;9.02;81.75
39823;BME280;25499;53.958;10.970;2022-10-12T19:23:12;102048.59;;;8.98;81.41
39823;BME280;25499;53.958;10.970;2022-10-12T19:25:38;102049.16;;;8.86;82.39
39823;BME280;25499;53.958;10.970;2022-10-12T19:28:04;102045.41;;;9.10;82.56
39823;BME280;25499;53.958;10.970;2022-10-12T19:30:29;102039.88;;;8.98;82.02
39823;BME280;25499;53.958;10.970;2022-10-12T19:32:55;102039.03;;;8.97;82.03
39823;BME280;25499;53.958;10.970;2022-10-12T19:35:20;102045.25;;;9.04;82.24
39823;BME280;25499;53.958;10.970;2022-10-12T19:37:47;102042.25;;;8.87;82.48
39823;BME280;25499;53.958;10.970;2022-10-12T19:40:13;102049.34;;;8.94;82.57
39823;BME280;25499;53.958;10.970;2022-10-12T19:42:41;102044.47;;;9.06;82.12
39823;BME280;25499;53.958;10.970;2022-10-12T19:45:11;102037.34;;;8.99;81.49
39823;BME280;25499;53.958;10.970;2022-10-12T19:47:37;102048.63;;;9.01;81.90
39823;BME280;25499;53.958;10.970;2022-10-12T19:50:02;102057.28;;;9.00;82.21
39823;BME280;25499;53.958;10.970;2022-10-12T19:52:28;102056.44;;;9.01;82.10
39823;BME280;25499;53.958;10.970;2022-10-12T19:54:54;102058.69;;;8.87;82.56
39823;BME280;25499;53.958;10.970;2022-10-12T19:57:19;102052.72;;;8.90;83.18
39823;BME280;25499;53.958;10.970;2022-10-12T19:59:45;102052.66;;;8.88;82.72
